Etusivu
METAR-TAF:

METAR-TAF

Lentoasemat :

Auburn, Alabama, Yhdysvallat

Leveyspiiri: 32-37N, Pituuspiiri: 085-26W, korkeus merenpinnasta: 236 m

Tämänhetkinen sää

Tämä raportti tehtiin 14 minuuttia sitten, kello 15.56 UTC
Tuuli 5 kn etelästä/lounaasta
Lämpötila 17°C
Kosteus 82%
Ilmanpaine 1022 hPa
Näkyvyys: 16.1 km
Pilvistä 1100 ft:n korkeudessa

METAR: KAUO 261556Z AUTO 20005KT 10SM OVC011 17/14 A3017 RMK AO2 SLP236 T01670144 $

Aika: 10:10 (16:10 UTC)


TAF: puuttuu

Säähavainnot ja -ennusteet yli 4000 lentoasemalta (METAR- ja TAF-raportit).

Käytössä olevat sääasemat on merkitty karttaan keltaisilla ja punaisilla pisteillä.

Aseta hiiri pisteen päälle nähdäksesi sääaseman nimen.

Klikkaa sitten nähdäksesi säähavainnot ja -ennusteet.

Kartan vaihtaminen: klikkaa mustalla rastilla varustettuja vihreitä pisteitä, niin voit zoomata sisään; viivalla varustettua vihreää pistettä, niin voit zoomata ulos tai vihreitä nuolia, niin pääset viereisille kartoille.


METAR-TAF: